createdAt,value
2022-08-07T00:00:26.114Z,16.60
2022-08-07T00:02:53.827Z,16.60
2022-08-07T00:05:23.686Z,16.60
2022-08-07T00:08:00.102Z,16.60
2022-08-07T00:10:31.557Z,16.60
2022-08-07T00:13:09.881Z,16.60
2022-08-07T00:15:51.199Z,16.50
2022-08-07T00:18:28.751Z,16.50
2022-08-07T00:21:03.322Z,16.50
2022-08-07T00:23:39.489Z,16.50
2022-08-07T00:26:18.460Z,16.40
2022-08-07T00:28:58.939Z,16.40
2022-08-07T00:31:26.426Z,16.40
2022-08-07T00:34:08.733Z,16.50
2022-08-07T00:36:38.637Z,16.60
2022-08-07T00:39:12.860Z,16.60
2022-08-07T00:42:02.096Z,16.60
2022-08-07T00:44:34.158Z,16.50
2022-08-07T00:47:03.863Z,16.50
2022-08-07T00:50:19.825Z,16.50
2022-08-07T00:52:20.827Z,16.50
2022-08-07T00:54:53.668Z,16.50
2022-08-07T00:57:25.855Z,16.50
2022-08-07T00:59:54.439Z,16.50
2022-08-07T01:02:29.015Z,16.60
2022-08-07T01:04:58.781Z,16.50
2022-08-07T01:07:29.344Z,16.60
2022-08-07T01:10:05.910Z,16.60
2022-08-07T01:12:53.997Z,16.50
2022-08-07T01:15:35.678Z,16.60
2022-08-07T01:18:11.471Z,16.50
2022-08-07T01:20:57.397Z,16.60
2022-08-07T01:23:38.743Z,16.60
2022-08-07T01:26:11.841Z,16.60
2022-08-07T01:28:45.884Z,16.50
2022-08-07T01:31:15.470Z,16.50
2022-08-07T01:33:55.452Z,16.50
2022-08-07T01:36:33.467Z,16.50
2022-08-07T01:39:01.920Z,16.50
2022-08-07T01:41:55.071Z,16.50
2022-08-07T01:44:27.328Z,16.50
2022-08-07T01:46:54.904Z,16.40
2022-08-07T01:49:22.357Z,16.40
2022-08-07T01:52:02.570Z,16.40
2022-08-07T01:54:37.496Z,16.40
2022-08-07T01:57:24.158Z,16.30
2022-08-07T02:00:02.021Z,16.30
2022-08-07T02:03:19.178Z,16.30
2022-08-07T02:05:55.324Z,16.30
2022-08-07T02:08:30.073Z,16.30
2022-08-07T02:10:59.573Z,16.30
2022-08-07T02:13:56.499Z,16.40
2022-08-07T02:16:19.927Z,16.40
2022-08-07T02:18:56.595Z,16.30
2022-08-07T02:21:26.475Z,16.30
2022-08-07T02:24:17.754Z,16.40
2022-08-07T02:26:46.572Z,16.30
2022-08-07T02:29:14.524Z,16.30
2022-08-07T02:31:41.800Z,16.30
2022-08-07T02:34:11.200Z,16.30
2022-08-07T02:36:45.996Z,16.30
2022-08-07T02:39:16.451Z,16.30
2022-08-07T02:41:50.723Z,16.40
2022-08-07T02:44:27.688Z,16.40
2022-08-07T02:47:04.236Z,16.40
2022-08-07T02:49:56.278Z,16.40
2022-08-07T02:53:06.157Z,16.40
2022-08-07T02:56:02.175Z,16.40
2022-08-07T02:58:28.594Z,16.30
2022-08-07T03:01:03.583Z,16.30
2022-08-07T03:03:49.503Z,16.30
2022-08-07T03:06:25.900Z,16.30
2022-08-07T03:09:02.043Z,16.30
2022-08-07T03:11:32.823Z,16.30
2022-08-07T03:14:03.617Z,16.20
2022-08-07T03:16:31.799Z,16.20
2022-08-07T03:19:00.295Z,16.10
2022-08-07T03:21:28.594Z,16.00
2022-08-07T03:24:17.989Z,16.10
2022-08-07T03:26:58.151Z,16.00
2022-08-07T03:29:32.004Z,15.80
2022-08-07T03:32:07.126Z,15.70
2022-08-07T03:34:47.303Z,15.60
2022-08-07T03:37:32.547Z,15.60
2022-08-07T03:40:15.072Z,15.40
2022-08-07T03:42:44.313Z,15.20
2022-08-07T03:45:12.797Z,15.10
2022-08-07T03:47:59.396Z,14.90
2022-08-07T03:50:28.694Z,14.80
2022-08-07T03:52:59.528Z,14.80
2022-08-07T03:55:52.876Z,14.60
2022-08-07T03:59:07.358Z,14.50
2022-08-07T04:01:11.701Z,14.40
2022-08-07T04:03:53.508Z,14.30
2022-08-07T04:06:36.401Z,14.40
2022-08-07T04:09:06.462Z,14.30
2022-08-07T04:12:26.703Z,14.30
2022-08-07T04:14:37.834Z,14.30
2022-08-07T04:17:19.855Z,14.20
2022-08-07T04:19:52.465Z,14.20
2022-08-07T04:22:29.355Z,14.10
2022-08-07T04:25:01.056Z,14.00
2022-08-07T04:27:39.258Z,14.00
2022-08-07T04:30:21.329Z,13.90
2022-08-07T04:33:00.047Z,13.80
2022-08-07T04:35:27.544Z,13.80
2022-08-07T04:38:13.101Z,13.70
2022-08-07T04:40:52.014Z,13.60
2022-08-07T04:44:11.933Z,13.60
2022-08-07T04:46:59.206Z,13.50
2022-08-07T04:49:42.251Z,13.50
2022-08-07T04:52:20.251Z,13.60
2022-08-07T04:58:13.248Z,13.60
2022-08-07T04:59:18.581Z,13.60
2022-08-07T05:02:06.327Z,13.60
2022-08-07T05:05:01.127Z,13.70
2022-08-07T05:07:48.140Z,13.80
2022-08-07T05:10:37.916Z,13.80
2022-08-07T05:14:53.040Z,13.80
2022-08-07T05:16:09.460Z,13.80
2022-08-07T05:18:47.315Z,13.70
2022-08-07T05:22:00.198Z,13.80
2022-08-07T05:24:11.650Z,13.90
2022-08-07T05:26:40.307Z,14.00
2022-08-07T05:29:15.988Z,14.00
2022-08-07T05:31:51.288Z,14.10
2022-08-07T05:34:21.666Z,14.10
2022-08-07T05:36:54.928Z,14.20
2022-08-07T05:40:06.529Z,14.30
2022-08-07T05:42:12.484Z,14.40
2022-08-07T05:44:46.456Z,14.50
2022-08-07T05:47:20.892Z,14.70
2022-08-07T05:50:06.644Z,14.80
2022-08-07T05:52:33.847Z,14.90
2022-08-07T05:55:08.420Z,14.90
2022-08-07T05:57:42.256Z,14.90
2022-08-07T06:00:16.267Z,15.10
2022-08-07T06:02:49.898Z,15.20
2022-08-07T06:05:19.754Z,15.20
2022-08-07T06:08:13.124Z,15.30
2022-08-07T06:10:52.064Z,15.50
2022-08-07T06:14:12.292Z,15.50
2022-08-07T06:16:10.341Z,15.60
2022-08-07T06:18:41.081Z,15.70
2022-08-07T06:22:15.115Z,15.80
2022-08-07T06:24:52.887Z,16.00
2022-08-07T06:26:46.648Z,16.10
2022-08-07T06:29:14.367Z,16.20
2022-08-07T06:31:49.827Z,16.30
2022-08-07T06:34:20.497Z,16.40
2022-08-07T06:36:48.268Z,16.60
2022-08-07T06:40:16.204Z,16.60
2022-08-07T06:42:17.845Z,16.70
2022-08-07T06:44:51.237Z,16.90
2022-08-07T06:47:19.723Z,17.00
2022-08-07T06:49:51.453Z,17.10
2022-08-07T06:52:35.569Z,17.20
2022-08-07T06:55:33.950Z,17.40
2022-08-07T06:58:10.655Z,17.50
2022-08-07T07:00:42.269Z,17.50
2022-08-07T07:03:13.715Z,17.60
2022-08-07T07:06:02.840Z,17.70
2022-08-07T07:08:31.023Z,17.80
2022-08-07T07:11:01.625Z,17.90
2022-08-07T07:13:57.790Z,18.00
2022-08-07T07:16:44.980Z,18.00
2022-08-07T07:19:55.776Z,18.10
2022-08-07T07:22:36.953Z,18.30
2022-08-07T07:26:31.453Z,18.40
2022-08-07T07:28:42.473Z,18.40
2022-08-07T07:31:08.538Z,18.50
2022-08-07T07:33:38.675Z,18.60
2022-08-07T07:36:12.766Z,18.70
2022-08-07T07:38:45.887Z,18.90
2022-08-07T07:41:20.312Z,19.00
2022-08-07T07:44:17.042Z,19.00
2022-08-07T07:46:55.295Z,19.00
2022-08-07T07:50:33.223Z,19.20
2022-08-07T07:52:19.054Z,19.40
2022-08-07T07:54:51.265Z,19.50
2022-08-07T07:57:50.368Z,19.50
2022-08-07T08:00:11.497Z,19.60
2022-08-07T08:03:04.828Z,19.70
2022-08-07T08:05:50.920Z,19.70
2022-08-07T08:08:34.237Z,19.90
2022-08-07T08:11:16.226Z,20.00
2022-08-07T08:13:53.931Z,20.10
2022-08-07T08:16:38.739Z,20.30
2022-08-07T08:20:16.198Z,20.40
2022-08-07T08:22:20.419Z,20.40
2022-08-07T08:25:43.053Z,20.40
2022-08-07T08:28:37.813Z,20.50
2022-08-07T08:31:16.442Z,20.70
2022-08-07T08:33:55.695Z,20.80
2022-08-07T08:36:30.412Z,20.90
2022-08-07T08:39:09.174Z,20.90
2022-08-07T08:42:01.422Z,21.10
2022-08-07T08:44:44.665Z,21.10
2022-08-07T08:48:32.595Z,21.20
2022-08-07T08:52:00.883Z,21.10
2022-08-07T08:54:25.727Z,21.20
2022-08-07T08:56:54.987Z,21.40
2022-08-07T08:59:48.058Z,21.60
2022-08-07T09:03:00.846Z,21.70
2022-08-07T09:06:18.440Z,21.80
2022-08-07T09:09:29.790Z,22.00
2022-08-07T09:12:30.365Z,22.30
2022-08-07T09:16:22.203Z,22.30
2022-08-07T09:18:41.502Z,22.30
2022-08-07T09:24:29.106Z,22.40
2022-08-07T09:25:20.337Z,22.60
2022-08-07T09:30:00.560Z,22.80
2022-08-07T09:31:04.595Z,22.90
2022-08-07T09:33:57.919Z,23.00
2022-08-07T09:36:37.472Z,23.10
2022-08-07T09:39:55.454Z,23.30
2022-08-07T09:42:59.087Z,23.40
2022-08-07T09:47:27.738Z,23.50
2022-08-07T09:50:01.949Z,23.70
2022-08-07T09:52:39.589Z,23.80
2022-08-07T09:56:04.587Z,23.90
2022-08-07T09:58:48.563Z,24.00
2022-08-07T10:01:51.391Z,24.00
2022-08-07T10:05:12.102Z,24.10
2022-08-07T10:08:16.081Z,24.30
2022-08-07T10:11:59.391Z,24.60
2022-08-07T10:14:30.328Z,24.70
2022-08-07T10:17:16.525Z,24.80
2022-08-07T10:20:07.567Z,24.90
2022-08-07T10:23:07.558Z,24.90
2022-08-07T10:25:53.108Z,24.90
2022-08-07T10:29:11.608Z,25.00
2022-08-07T10:31:54.027Z,24.70
2022-08-07T10:34:54.964Z,24.80
2022-08-07T10:38:00.094Z,25.10
2022-08-07T10:40:48.745Z,25.20
2022-08-07T10:43:44.476Z,25.50
2022-08-07T10:46:30.802Z,25.60
2022-08-07T10:49:49.702Z,25.60
2022-08-07T10:52:50.843Z,25.70
2022-08-07T10:55:37.238Z,26.00
2022-08-07T10:58:33.398Z,26.20
2022-08-07T11:01:35.688Z,26.20
2022-08-07T11:04:58.119Z,26.30
2022-08-07T11:07:58.630Z,26.40
2022-08-07T11:10:55.495Z,26.50
2022-08-07T11:14:45.196Z,26.70
2022-08-07T11:17:13.013Z,26.60
2022-08-07T11:20:04.036Z,26.80
2022-08-07T11:22:46.277Z,27.10
2022-08-07T11:25:36.148Z,27.40
2022-08-07T11:28:16.617Z,27.90
2022-08-07T11:31:08.728Z,28.40
2022-08-07T11:34:00.405Z,28.80
2022-08-07T11:37:11.645Z,30.00
2022-08-07T11:40:35.873Z,30.40
2022-08-07T11:43:54.199Z,30.60
2022-08-07T11:46:55.558Z,31.80
2022-08-07T11:50:31.734Z,32.60
2022-08-07T11:53:27.144Z,33.40
2022-08-07T11:56:26.904Z,34.20
2022-08-07T12:00:12.183Z,34.40
2022-08-07T12:02:34.003Z,34.50
2022-08-07T12:05:41.475Z,34.30
2022-08-07T12:08:35.244Z,33.30
2022-08-07T12:11:32.189Z,31.80
2022-08-07T12:14:24.706Z,30.70
2022-08-07T12:16:55.364Z,31.70
2022-08-07T12:19:56.485Z,32.50
2022-08-07T12:22:58.874Z,32.80
2022-08-07T12:26:03.215Z,33.30
2022-08-07T12:29:01.850Z,33.60
2022-08-07T12:32:03.824Z,33.80
2022-08-07T12:34:37.243Z,34.00
2022-08-07T12:37:08.474Z,34.20
2022-08-07T12:39:50.380Z,33.70
2022-08-07T12:42:27.788Z,33.90
2022-08-07T12:44:59.411Z,34.10
2022-08-07T12:47:49.239Z,34.00
2022-08-07T12:50:56.724Z,33.20
2022-08-07T12:54:02.908Z,32.50
2022-08-07T12:56:39.643Z,32.40
2022-08-07T12:59:08.717Z,32.30
2022-08-07T13:02:40.361Z,32.80
2022-08-07T13:06:04.686Z,32.60
2022-08-07T13:08:59.578Z,31.00
2022-08-07T13:12:15.128Z,30.90
2022-08-07T13:15:23.286Z,31.40
2022-08-07T13:18:34.600Z,32.40
2022-08-07T13:21:15.074Z,32.90
2022-08-07T13:24:25.828Z,33.10
2022-08-07T13:27:20.790Z,32.60
2022-08-07T13:30:19.661Z,31.80
2022-08-07T13:34:31.849Z,31.00
2022-08-07T13:36:06.462Z,30.80
2022-08-07T13:39:12.910Z,30.50
2022-08-07T13:41:56.923Z,30.00
2022-08-07T13:44:34.521Z,30.60
2022-08-07T13:47:09.308Z,30.80
2022-08-07T13:50:34.310Z,31.30
2022-08-07T13:52:38.178Z,32.00
2022-08-07T13:55:19.694Z,31.90
2022-08-07T13:58:27.933Z,32.10
2022-08-07T14:01:09.206Z,31.80
2022-08-07T14:04:07.586Z,31.30
2022-08-07T14:06:40.445Z,30.50
2022-08-07T14:10:00.876Z,30.90
2022-08-07T14:13:19.015Z,30.70
2022-08-07T14:16:15.346Z,31.10
2022-08-07T14:18:57.062Z,31.20
2022-08-07T14:22:04.316Z,31.00
2022-08-07T14:24:33.243Z,31.00
2022-08-07T14:28:09.605Z,30.40
2022-08-07T14:30:12.678Z,30.20
2022-08-07T14:32:50.690Z,30.20
2022-08-07T14:35:44.938Z,30.00
2022-08-07T14:38:26.482Z,30.40
2022-08-07T14:41:12.107Z,30.90
2022-08-07T14:43:57.075Z,31.10
2022-08-07T14:46:31.970Z,30.60
2022-08-07T14:49:17.509Z,30.20
2022-08-07T14:52:04.612Z,30.10
2022-08-07T14:54:42.161Z,30.30
2022-08-07T14:57:14.908Z,29.60
2022-08-07T15:00:05.466Z,29.80
2022-08-07T15:02:39.373Z,29.80
2022-08-07T15:05:19.988Z,29.70
2022-08-07T15:07:52.054Z,29.50
2022-08-07T15:13:22.541Z,29.00
2022-08-07T15:15:58.284Z,28.90
2022-08-07T15:18:36.304Z,28.60
2022-08-07T15:21:58.820Z,28.60
2022-08-07T15:25:15.379Z,28.60
2022-08-07T15:27:09.137Z,28.30
2022-08-07T15:30:06.816Z,28.40
2022-08-07T15:32:39.413Z,28.70
2022-08-07T15:35:17.202Z,29.10
2022-08-07T15:38:17.500Z,29.10
2022-08-07T15:41:00.482Z,29.20
2022-08-07T15:43:56.030Z,29.10
2022-08-07T15:46:31.659Z,29.00
2022-08-07T15:54:39.462Z,29.00
2022-08-07T15:57:27.812Z,29.00
2022-08-07T16:00:04.364Z,28.70
2022-08-07T16:02:45.741Z,28.50
2022-08-07T16:05:19.376Z,28.70
2022-08-07T16:08:33.333Z,28.30
2022-08-07T16:10:47.363Z,28.30
2022-08-07T16:13:59.838Z,28.40
2022-08-07T16:17:02.242Z,28.30
2022-08-07T16:20:12.262Z,28.30
2022-08-07T16:23:54.516Z,28.20
2022-08-07T16:26:30.397Z,28.00
2022-08-07T16:30:11.240Z,27.90
2022-08-07T16:32:33.237Z,28.00
2022-08-07T16:35:51.779Z,27.80
2022-08-07T16:38:59.972Z,27.90
2022-08-07T16:41:54.166Z,28.00
2022-08-07T16:45:03.816Z,27.90
2022-08-07T16:48:06.856Z,27.80
2022-08-07T16:51:22.692Z,28.00
2022-08-07T16:54:34.502Z,27.90
2022-08-07T16:58:00.902Z,27.50
2022-08-07T17:00:17.426Z,27.70
2022-08-07T17:03:21.767Z,27.60
2022-08-07T17:06:31.124Z,27.50
2022-08-07T17:10:06.975Z,27.70
2022-08-07T17:13:41.824Z,28.00
2022-08-07T17:16:34.114Z,28.20
2022-08-07T17:20:01.146Z,28.30
2022-08-07T17:22:36.481Z,28.40
2022-08-07T17:25:15.178Z,28.80
2022-08-07T17:28:19.466Z,28.90
2022-08-07T17:30:59.441Z,29.00
2022-08-07T17:34:09.695Z,28.90
2022-08-07T17:36:29.051Z,28.90
2022-08-07T17:39:10.126Z,28.60
2022-08-07T17:42:01.695Z,28.40
2022-08-07T17:44:45.461Z,27.80
2022-08-07T17:47:38.267Z,27.40
2022-08-07T17:50:52.616Z,26.90
2022-08-07T17:54:01.222Z,26.40
2022-08-07T17:56:30.566Z,25.90
2022-08-07T17:59:00.377Z,25.40
2022-08-07T18:01:58.423Z,25.00
2022-08-07T18:05:01.387Z,24.60
2022-08-07T18:08:16.395Z,24.30
2022-08-07T18:12:17.690Z,24.00
2022-08-07T18:14:33.955Z,23.80
2022-08-07T18:18:46.657Z,23.60
2022-08-07T18:21:09.695Z,23.50
2022-08-07T18:24:33.090Z,23.10
2022-08-07T18:27:20.810Z,22.90
2022-08-07T18:30:32.412Z,22.60
2022-08-07T18:33:34.916Z,22.40
2022-08-07T18:36:37.127Z,22.20
2022-08-07T18:40:07.973Z,22.00
2022-08-07T18:42:27.882Z,21.80
2022-08-07T18:45:42.893Z,21.50
2022-08-07T18:50:04.598Z,21.40
2022-08-07T18:52:35.608Z,21.20
2022-08-07T18:54:54.368Z,21.10
2022-08-07T18:57:59.686Z,20.90
2022-08-07T19:00:53.671Z,20.70
2022-08-07T19:03:40.347Z,20.60
2022-08-07T19:06:33.897Z,20.50
2022-08-07T19:09:57.292Z,20.50
2022-08-07T19:12:20.029Z,20.40
2022-08-07T19:14:56.286Z,20.30
2022-08-07T19:18:02.755Z,20.20
2022-08-07T19:21:08.960Z,20.00
2022-08-07T19:23:59.453Z,19.90
2022-08-07T19:26:55.488Z,19.70
2022-08-07T19:30:57.804Z,19.40
2022-08-07T19:32:29.153Z,19.30
2022-08-07T19:35:03.265Z,19.10
2022-08-07T19:37:56.731Z,19.00
2022-08-07T19:40:31.571Z,18.80
2022-08-07T19:43:21.819Z,18.80
2022-08-07T19:46:09.603Z,18.70
2022-08-07T19:48:53.560Z,18.60
2022-08-07T19:51:52.812Z,18.50
2022-08-07T19:54:29.499Z,18.40
2022-08-07T19:58:00.654Z,18.40
2022-08-07T20:00:01.887Z,18.30
2022-08-07T20:02:38.948Z,18.20
2022-08-07T20:05:10.495Z,18.10
2022-08-07T20:07:46.606Z,18.10
2022-08-07T20:10:36.797Z,18.00
2022-08-07T20:13:22.661Z,17.90
2022-08-07T20:15:57.931Z,17.80
2022-08-07T20:18:32.709Z,17.80
2022-08-07T20:21:21.005Z,17.80
2022-08-07T20:24:00.412Z,17.70
2022-08-07T20:26:44.966Z,17.70
2022-08-07T20:29:49.050Z,17.70
2022-08-07T20:32:06.835Z,17.60
2022-08-07T20:34:50.884Z,17.60
2022-08-07T20:37:29.746Z,17.60
2022-08-07T20:40:33.422Z,17.60
2022-08-07T20:42:57.336Z,17.60
2022-08-07T20:45:33.771Z,17.60
2022-08-07T20:48:25.852Z,17.60
2022-08-07T20:51:00.763Z,17.60
2022-08-07T20:54:04.580Z,17.60
2022-08-07T20:56:28.042Z,17.50
2022-08-07T20:59:03.259Z,17.50
2022-08-07T21:01:45.235Z,17.50
2022-08-07T21:04:22.799Z,17.50
2022-08-07T21:06:56.858Z,17.40
2022-08-07T21:09:35.434Z,17.40
2022-08-07T21:12:28.895Z,17.30
2022-08-07T21:15:02.452Z,17.30
2022-08-07T21:18:20.350Z,17.20
2022-08-07T21:20:30.160Z,17.20
2022-08-07T21:23:08.938Z,17.10
2022-08-07T21:26:08.175Z,17.10
2022-08-07T21:29:23.507Z,17.00
2022-08-07T21:32:46.732Z,16.90
2022-08-07T21:35:34.898Z,16.90
2022-08-07T21:38:49.810Z,16.80
2022-08-07T21:41:37.676Z,16.80
2022-08-07T21:44:53.845Z,16.80
2022-08-07T21:47:39.968Z,16.80
2022-08-07T21:50:51.320Z,16.80
2022-08-07T21:53:32.893Z,16.80
2022-08-07T21:56:48.011Z,16.80
2022-08-07T22:00:05.540Z,16.80
2022-08-07T22:03:18.751Z,16.90
2022-08-07T22:06:30.623Z,17.00
2022-08-07T22:09:12.799Z,17.00
2022-08-07T22:12:05.510Z,17.00
2022-08-07T22:14:59.082Z,17.00
2022-08-07T22:17:45.077Z,17.10
2022-08-07T22:20:24.940Z,17.20
2022-08-07T22:23:04.077Z,17.20
2022-08-07T22:25:56.171Z,17.20
2022-08-07T22:28:36.712Z,17.20
2022-08-07T22:31:10.315Z,17.20
2022-08-07T22:33:56.367Z,17.20
2022-08-07T22:36:47.283Z,17.30
2022-08-07T22:40:05.219Z,17.30
2022-08-07T22:42:34.430Z,17.40
2022-08-07T22:45:11.088Z,17.40
2022-08-07T22:48:02.300Z,17.40
2022-08-07T22:50:57.773Z,17.30
2022-08-07T22:54:06.872Z,17.30
2022-08-07T22:57:05.736Z,17.30
2022-08-07T23:00:03.175Z,17.20
2022-08-07T23:02:54.217Z,17.10
2022-08-07T23:06:09.036Z,17.20
2022-08-07T23:08:53.021Z,17.10
2022-08-07T23:11:44.217Z,17.10
2022-08-07T23:15:06.607Z,17.30
2022-08-07T23:17:36.175Z,17.20
2022-08-07T23:20:53.413Z,17.20
2022-08-07T23:24:05.318Z,17.10
2022-08-07T23:27:02.091Z,17.00
2022-08-07T23:30:37.497Z,17.00
2022-08-07T23:34:18.640Z,17.00
2022-08-07T23:36:28.786Z,17.00
2022-08-07T23:39:22.042Z,16.80
2022-08-07T23:42:35.777Z,16.80
2022-08-07T23:46:01.332Z,16.80
2022-08-07T23:48:25.128Z,17.00
2022-08-07T23:51:01.771Z,17.10
2022-08-07T23:53:59.184Z,17.10
2022-08-07T23:56:41.582Z,17.10
